VKG018 ENML-ENBO
Flight info
| Callsign | VKG018 |
|---|---|
| Flight time | 0h 46m |
| Altitude | 35000 |
| Route | NELSU DCT ODNOS |
| Aircraft | A321/M-SDE3FGHIRWY/LB1 |
Departure
| Time | 2026-04-20 17:13 |
|---|---|
| Airport | Molde Airport, Årø (ENML) |
Arrival
| Time | 2026-04-20 18:00 |
|---|---|
| Airport | Bodø Airport (ENBO) |
| Time | Latitude | Longitude | Altitude | Speed | Heading |
|---|---|---|---|---|---|
| 2026-04-20 16:59 | 62.74583 | 7.26060 | 19 ft | 0 kts | 341° |
| 2026-04-20 17:05 | 62.74576 | 7.26065 | 17 ft | 3 kts | 341° |
| 2026-04-20 17:05 | 62.74557 | 7.26079 | 19 ft | 3 kts | 342° |
| 2026-04-20 17:06 | 62.74538 | 7.26092 | 18 ft | 2 kts | 343° |
| 2026-04-20 17:06 | 62.74529 | 7.26098 | 20 ft | 1 kts | 343° |
| 2026-04-20 17:06 | 62.74528 | 7.26099 | 20 ft | 0 kts | 343° |
| 2026-04-20 17:07 | 62.74546 | 7.26110 | 19 ft | 7 kts | 21° |
| 2026-04-20 17:08 | 62.74557 | 7.26172 | 17 ft | 4 kts | 74° |
| 2026-04-20 17:08 | 62.74541 | 7.26244 | 18 ft | 11 kts | 144° |
| 2026-04-20 17:08 | 62.74510 | 7.26409 | 17 ft | 19 kts | 81° |
| 2026-04-20 17:08 | 62.74550 | 7.26721 | 18 ft | 17 kts | 70° |
| 2026-04-20 17:09 | 62.74591 | 7.26969 | 16 ft | 17 kts | 70° |
| 2026-04-20 17:09 | 62.74628 | 7.27201 | 16 ft | 16 kts | 71° |
| 2026-04-20 17:09 | 62.74658 | 7.27391 | 19 ft | 11 kts | 71° |
| 2026-04-20 17:09 | 62.74682 | 7.27537 | 20 ft | 10 kts | 71° |
| 2026-04-20 17:10 | 62.74702 | 7.27665 | 21 ft | 8 kts | 71° |
| 2026-04-20 17:10 | 62.74719 | 7.27774 | 22 ft | 11 kts | 71° |
| 2026-04-20 17:10 | 62.74760 | 7.28041 | 19 ft | 21 kts | 71° |
| 2026-04-20 17:10 | 62.74793 | 7.28249 | 19 ft | 20 kts | 70° |
| 2026-04-20 17:11 | 62.74836 | 7.28522 | 18 ft | 15 kts | 73° |
| 2026-04-20 17:11 | 62.74852 | 7.28706 | 16 ft | 4 kts | 85° |
| 2026-04-20 17:11 | 62.74858 | 7.28730 | 17 ft | 1 kts | 35° |
| 2026-04-20 17:12 | 62.74866 | 7.28728 | 19 ft | 2 kts | 340° |
| 2026-04-20 17:12 | 62.74859 | 7.28677 | 16 ft | 4 kts | 231° |
| 2026-04-20 17:12 | 62.74854 | 7.28644 | 18 ft | 1 kts | 259° |
| 2026-04-20 17:12 | 62.74831 | 7.28484 | 17 ft | 33 kts | 251° |
| 2026-04-20 17:13 | 62.74672 | 7.27483 | 20 ft | 103 kts | 251° |
| 2026-04-20 17:13 | 62.74380 | 7.25603 | 32 ft | 155 kts | 254° |
| 2026-04-20 17:13 | 62.74020 | 7.23267 | 764 ft | 165 kts | 254° |
| 2026-04-20 17:13 | 62.73641 | 7.20854 | 1694 ft | 168 kts | 253° |
| 2026-04-20 17:14 | 62.73264 | 7.18480 | 2458 ft | 166 kts | 252° |
| 2026-04-20 17:14 | 62.72867 | 7.15979 | 2721 ft | 185 kts | 252° |
| 2026-04-20 17:14 | 62.72383 | 7.13197 | 2895 ft | 208 kts | 240° |
| 2026-04-20 17:14 | 62.71283 | 7.10919 | 3046 ft | 235 kts | 208° |
| 2026-04-20 17:15 | 62.69615 | 7.10316 | 3351 ft | 258 kts | 169° |
| 2026-04-20 17:15 | 62.68032 | 7.12146 | 4087 ft | 263 kts | 132° |
| 2026-04-20 17:15 | 62.67233 | 7.15681 | 4956 ft | 265 kts | 97° |
| 2026-04-20 17:15 | 62.67436 | 7.19665 | 5796 ft | 268 kts | 73° |
| 2026-04-20 17:16 | 62.68098 | 7.23483 | 6640 ft | 271 kts | 66° |
| 2026-04-20 17:16 | 62.68903 | 7.27223 | 7443 ft | 274 kts | 64° |
| 2026-04-20 17:16 | 62.69730 | 7.30934 | 8204 ft | 278 kts | 64° |
| 2026-04-20 17:16 | 62.70560 | 7.34757 | 8973 ft | 281 kts | 65° |
| 2026-04-20 17:17 | 62.71351 | 7.38685 | 9734 ft | 285 kts | 67° |
| 2026-04-20 17:17 | 62.72109 | 7.42699 | 10482 ft | 288 kts | 68° |
| 2026-04-20 17:17 | 62.72873 | 7.46857 | 10856 ft | 306 kts | 68° |
| 2026-04-20 17:17 | 62.73690 | 7.51334 | 11025 ft | 329 kts | 68° |
| 2026-04-20 17:18 | 62.74563 | 7.56100 | 11316 ft | 345 kts | 68° |
| 2026-04-20 17:18 | 62.75462 | 7.61007 | 11933 ft | 350 kts | 68° |
| 2026-04-20 17:18 | 62.76374 | 7.65971 | 12599 ft | 354 kts | 68° |
| 2026-04-20 17:18 | 62.77293 | 7.70980 | 13305 ft | 357 kts | 69° |
| 2026-04-20 17:19 | 62.78223 | 7.76052 | 13988 ft | 361 kts | 69° |
| 2026-04-20 17:19 | 62.79161 | 7.81176 | 14633 ft | 365 kts | 69° |
| 2026-04-20 17:19 | 62.80108 | 7.86352 | 15233 ft | 368 kts | 69° |
| 2026-04-20 17:19 | 62.81062 | 7.91591 | 15842 ft | 372 kts | 69° |
| 2026-04-20 17:20 | 62.82020 | 7.96860 | 16456 ft | 375 kts | 69° |
| 2026-04-20 17:20 | 62.82989 | 8.02196 | 17049 ft | 379 kts | 69° |
| 2026-04-20 17:20 | 62.83961 | 8.07571 | 17642 ft | 382 kts | 69° |
| 2026-04-20 17:20 | 62.84930 | 8.12940 | 18223 ft | 385 kts | 69° |
| 2026-04-20 17:21 | 62.85927 | 8.18491 | 18814 ft | 389 kts | 70° |
| 2026-04-20 17:21 | 62.86906 | 8.23962 | 19293 ft | 392 kts | 70° |
| 2026-04-20 17:21 | 62.87916 | 8.29631 | 19784 ft | 396 kts | 70° |
| 2026-04-20 17:21 | 62.88904 | 8.35193 | 20282 ft | 398 kts | 70° |
| 2026-04-20 17:22 | 62.89913 | 8.40872 | 20820 ft | 400 kts | 70° |
| 2026-04-20 17:22 | 62.90925 | 8.46576 | 21333 ft | 402 kts | 71° |
| 2026-04-20 17:22 | 62.91937 | 8.52310 | 21820 ft | 404 kts | 71° |
| 2026-04-20 17:22 | 62.92957 | 8.58094 | 22343 ft | 407 kts | 71° |
| 2026-04-20 17:23 | 62.93978 | 8.63893 | 22828 ft | 409 kts | 71° |
| 2026-04-20 17:23 | 62.95005 | 8.69755 | 23298 ft | 412 kts | 71° |
| 2026-04-20 17:23 | 62.96033 | 8.75652 | 23765 ft | 415 kts | 71° |
| 2026-04-20 17:23 | 62.97081 | 8.81583 | 24186 ft | 418 kts | 69° |
| 2026-04-20 17:24 | 62.98591 | 8.87070 | 24528 ft | 425 kts | 52° |
| 2026-04-20 17:24 | 63.00776 | 8.91489 | 24902 ft | 431 kts | 36° |
| 2026-04-20 17:24 | 63.03352 | 8.94915 | 25290 ft | 434 kts | 32° |
| 2026-04-20 17:24 | 63.05932 | 8.98239 | 25665 ft | 436 kts | 32° |
| 2026-04-20 17:25 | 63.08590 | 9.01654 | 26055 ft | 438 kts | 32° |
| 2026-04-20 17:25 | 63.11196 | 9.05001 | 26416 ft | 440 kts | 32° |
| 2026-04-20 17:25 | 63.13843 | 9.08410 | 26783 ft | 442 kts | 32° |
| 2026-04-20 17:25 | 63.16498 | 9.11840 | 27184 ft | 443 kts | 32° |
| 2026-04-20 17:26 | 63.19168 | 9.15295 | 27571 ft | 444 kts | 32° |
| 2026-04-20 17:26 | 63.21832 | 9.18752 | 27946 ft | 445 kts | 32° |
| 2026-04-20 17:26 | 63.24511 | 9.22244 | 28306 ft | 447 kts | 32° |
| 2026-04-20 17:26 | 63.27198 | 9.25762 | 28642 ft | 449 kts | 32° |
| 2026-04-20 17:27 | 63.29901 | 9.29308 | 28981 ft | 452 kts | 32° |
| 2026-04-20 17:27 | 63.32611 | 9.32869 | 29298 ft | 453 kts | 32° |
| 2026-04-20 17:27 | 63.35335 | 9.36452 | 29608 ft | 456 kts | 32° |
| 2026-04-20 17:27 | 63.38071 | 9.40056 | 29934 ft | 457 kts | 32° |
| 2026-04-20 17:28 | 63.40813 | 9.43678 | 30267 ft | 459 kts | 32° |
| 2026-04-20 17:28 | 63.43568 | 9.47330 | 30597 ft | 460 kts | 32° |
| 2026-04-20 17:28 | 63.46316 | 9.50976 | 30985 ft | 459 kts | 32° |
| 2026-04-20 17:28 | 63.49058 | 9.54619 | 31373 ft | 457 kts | 32° |
| 2026-04-20 17:29 | 63.51759 | 9.58215 | 31744 ft | 456 kts | 32° |
| 2026-04-20 17:29 | 63.54477 | 9.61843 | 32134 ft | 455 kts | 32° |
| 2026-04-20 17:29 | 63.57198 | 9.65484 | 32523 ft | 454 kts | 32° |
| 2026-04-20 17:29 | 63.59915 | 9.69122 | 32904 ft | 453 kts | 32° |
| 2026-04-20 17:30 | 63.62622 | 9.72758 | 33279 ft | 452 kts | 33° |
| 2026-04-20 17:30 | 63.65317 | 9.76387 | 33490 ft | 452 kts | 33° |
| 2026-04-20 17:30 | 63.68041 | 9.80069 | 33522 ft | 459 kts | 33° |
| 2026-04-20 17:31 | 63.73582 | 9.87604 | 33519 ft | 470 kts | 33° |
| 2026-04-20 17:31 | 63.79207 | 9.95266 | 33509 ft | 472 kts | 33° |
| 2026-04-20 17:32 | 63.84799 | 10.02909 | 33498 ft | 473 kts | 33° |
| 2026-04-20 17:32 | 63.90424 | 10.10649 | 33500 ft | 472 kts | 33° |
| 2026-04-20 17:33 | 63.96050 | 10.18424 | 33497 ft | 473 kts | 33° |
| 2026-04-20 17:33 | 64.01671 | 10.26233 | 33476 ft | 473 kts | 33° |
| 2026-04-20 17:34 | 64.07295 | 10.34066 | 33484 ft | 474 kts | 33° |
| 2026-04-20 17:34 | 64.12926 | 10.41946 | 33486 ft | 474 kts | 33° |
| 2026-04-20 17:35 | 64.18518 | 10.49816 | 33489 ft | 474 kts | 33° |
| 2026-04-20 17:35 | 64.24141 | 10.57772 | 33493 ft | 474 kts | 33° |
| 2026-04-20 17:36 | 64.29752 | 10.65759 | 33494 ft | 474 kts | 33° |
| 2026-04-20 17:36 | 64.35373 | 10.73781 | 33492 ft | 474 kts | 33° |
| 2026-04-20 17:37 | 64.40977 | 10.81822 | 33496 ft | 474 kts | 33° |
| 2026-04-20 17:37 | 64.46582 | 10.89911 | 33496 ft | 474 kts | 33° |
| 2026-04-20 17:38 | 64.52179 | 10.98020 | 33488 ft | 474 kts | 33° |
| 2026-04-20 17:38 | 64.57768 | 11.06176 | 33482 ft | 474 kts | 33° |
| 2026-04-20 17:39 | 64.63323 | 11.14294 | 33478 ft | 474 kts | 33° |
| 2026-04-20 17:39 | 64.68915 | 11.22504 | 33485 ft | 474 kts | 33° |
| 2026-04-20 17:40 | 64.74494 | 11.30765 | 33483 ft | 475 kts | 33° |
| 2026-04-20 17:40 | 64.80070 | 11.39078 | 33483 ft | 475 kts | 33° |
| 2026-04-20 17:41 | 64.85644 | 11.47403 | 33458 ft | 475 kts | 34° |
| 2026-04-20 17:41 | 64.91217 | 11.55755 | 33457 ft | 475 kts | 33° |
| 2026-04-20 17:42 | 64.96801 | 11.64160 | 33467 ft | 476 kts | 33° |
| 2026-04-20 17:42 | 65.02373 | 11.72607 | 33471 ft | 476 kts | 34° |
| 2026-04-20 17:43 | 65.07948 | 11.81104 | 33473 ft | 476 kts | 34° |
| 2026-04-20 17:43 | 65.13517 | 11.89627 | 33473 ft | 476 kts | 34° |
| 2026-04-20 17:44 | 65.19074 | 11.98187 | 33468 ft | 476 kts | 33° |
| 2026-04-20 17:44 | 65.24595 | 12.06730 | 33459 ft | 476 kts | 34° |
| 2026-04-20 17:45 | 65.30151 | 12.15369 | 33464 ft | 477 kts | 34° |
| 2026-04-20 17:45 | 65.35711 | 12.24037 | 33467 ft | 477 kts | 34° |
| 2026-04-20 17:46 | 65.41254 | 12.32759 | 33492 ft | 476 kts | 34° |
| 2026-04-20 17:46 | 65.46803 | 12.41517 | 33490 ft | 477 kts | 33° |
| 2026-04-20 17:47 | 65.63633 | 12.68339 | 33419 ft | 433 kts | 34° |
| 2026-04-20 17:47 | 65.84179 | 13.01726 | 32749 ft | 447 kts | 34° |
| 2026-04-20 17:47 | 65.94561 | 13.18854 | 30594 ft | 459 kts | 33° |
| 2026-04-20 17:48 | 66.04853 | 13.35968 | 28045 ft | 448 kts | 33° |
| 2026-04-20 17:48 | 66.14603 | 13.52340 | 26402 ft | 421 kts | 33° |
| 2026-04-20 17:48 | 66.24047 | 13.68354 | 24661 ft | 401 kts | 33° |
| 2026-04-20 17:48 | 66.33285 | 13.83437 | 22678 ft | 386 kts | 27° |
| 2026-04-20 17:49 | 66.42416 | 13.96088 | 21055 ft | 367 kts | 27° |
| 2026-04-20 17:49 | 66.51131 | 14.08683 | 19399 ft | 356 kts | 28° |
| 2026-04-20 17:49 | 66.59601 | 14.21079 | 17644 ft | 348 kts | 27° |
| 2026-04-20 17:49 | 66.63734 | 14.27146 | 16858 ft | 341 kts | 27° |
| 2026-04-20 17:50 | 66.67808 | 14.33161 | 16043 ft | 337 kts | 27° |
| 2026-04-20 17:50 | 66.71892 | 14.38816 | 15231 ft | 331 kts | 21° |
| 2026-04-20 17:50 | 66.76069 | 14.43675 | 14394 ft | 332 kts | 22° |
| 2026-04-20 17:50 | 66.80373 | 14.48745 | 13106 ft | 339 kts | 22° |
| 2026-04-20 17:51 | 66.83534 | 14.52496 | 12475 ft | 334 kts | 22° |
| 2026-04-20 17:51 | 66.84924 | 14.54147 | 12201 ft | 332 kts | 22° |
| 2026-04-20 17:51 | 66.87678 | 14.57447 | 11642 ft | 328 kts | 22° |
| 2026-04-20 17:51 | 66.89728 | 14.59930 | 11228 ft | 325 kts | 22° |
| 2026-04-20 17:52 | 66.91761 | 14.62404 | 10807 ft | 323 kts | 22° |
| 2026-04-20 17:52 | 66.93783 | 14.64870 | 10404 ft | 320 kts | 22° |
| 2026-04-20 17:52 | 66.95094 | 14.66473 | 10290 ft | 311 kts | 22° |
| 2026-04-20 17:52 | 66.97008 | 14.68814 | 10155 ft | 299 kts | 22° |
| 2026-04-20 17:53 | 66.98860 | 14.71078 | 9937 ft | 292 kts | 22° |
| 2026-04-20 17:53 | 67.00675 | 14.73297 | 9670 ft | 286 kts | 22° |
| 2026-04-20 17:53 | 67.02466 | 14.75492 | 9375 ft | 286 kts | 22° |
| 2026-04-20 17:53 | 67.04261 | 14.77697 | 8939 ft | 286 kts | 22° |
| 2026-04-20 17:54 | 67.06039 | 14.79884 | 8542 ft | 283 kts | 22° |
| 2026-04-20 17:54 | 67.07810 | 14.82064 | 8197 ft | 279 kts | 22° |
| 2026-04-20 17:54 | 67.10962 | 14.85954 | 7503 ft | 276 kts | 23° |
| 2026-04-20 17:54 | 67.17666 | 14.94048 | 6494 ft | 249 kts | 13° |
| 2026-04-20 17:55 | 67.23535 | 14.94038 | 5188 ft | 226 kts | 347° |
| 2026-04-20 17:55 | 67.24992 | 14.92618 | 4635 ft | 220 kts | 326° |
| 2026-04-20 17:55 | 67.26137 | 14.90017 | 4409 ft | 219 kts | 308° |
| 2026-04-20 17:55 | 67.26880 | 14.86606 | 4176 ft | 219 kts | 290° |
| 2026-04-20 17:56 | 67.27151 | 14.82735 | 3887 ft | 220 kts | 272° |
| 2026-04-20 17:56 | 67.27177 | 14.78775 | 3567 ft | 219 kts | 274° |
| 2026-04-20 17:56 | 67.27226 | 14.74872 | 3218 ft | 216 kts | 271° |
| 2026-04-20 17:56 | 67.27245 | 14.71002 | 2860 ft | 208 kts | 270° |
| 2026-04-20 17:57 | 67.27254 | 14.67409 | 2550 ft | 201 kts | 270° |
| 2026-04-20 17:57 | 67.27260 | 14.63864 | 2242 ft | 189 kts | 270° |
| 2026-04-20 17:57 | 67.27266 | 14.60657 | 1961 ft | 170 kts | 270° |
| 2026-04-20 17:57 | 67.27270 | 14.57694 | 1691 ft | 160 kts | 269° |
| 2026-04-20 17:58 | 67.27273 | 14.54893 | 1474 ft | 149 kts | 269° |
| 2026-04-20 17:58 | 67.27276 | 14.52293 | 1215 ft | 141 kts | 269° |
| 2026-04-20 17:58 | 67.27279 | 14.49784 | 987 ft | 139 kts | 269° |
| 2026-04-20 17:58 | 67.27280 | 14.47305 | 774 ft | 138 kts | 269° |
| 2026-04-20 17:59 | 67.27292 | 14.44836 | 544 ft | 137 kts | 272° |
| 2026-04-20 17:59 | 67.27383 | 14.42382 | 298 ft | 137 kts | 270° |
| 2026-04-20 17:59 | 67.27223 | 14.40013 | 117 ft | 134 kts | 256° |
| 2026-04-20 17:59 | 67.27028 | 14.37770 | 46 ft | 109 kts | 257° |
| 2026-04-20 18:00 | 67.26940 | 14.36772 | 44 ft | 10 kts | 257° |
| 2026-04-20 18:00 | 67.26956 | 14.36504 | 42 ft | 20 kts | 323° |
| 2026-04-20 18:00 | 67.27063 | 14.36540 | 43 ft | 15 kts | 24° |
| 2026-04-20 18:00 | 67.27082 | 14.36710 | 44 ft | 9 kts | 97° |
| 2026-04-20 18:01 | 67.27108 | 14.36790 | 44 ft | 5 kts | 26° |
| 2026-04-20 18:01 | 67.27132 | 14.36787 | 44 ft | 0 kts | 356° |